El Campo, Texas
Current Conditions -  °F | °C
As of 12:35 PM on Wednesday 26 Nov 2014 (Local Time) from KELA Reporting Station
Clear Clear  
Wind Chill: 69°   Ceiling: Unl
Heat Index: 69°   Visibility: 10mi
Dew Point: 38°   Wind: 14mph
Humidity: 31%   Direction: 230°SW
Pressure: 30.2"   Gusts: 20mph
Location:  29.22°N, 96.29°W
Report Text: KELA 261835Z AUTO 23012G17KT 10SM CLR 21/03 A3020 RMK AO2 T02080031
Loading
Personal Weather Stations






























Interactive Weather Map New forecast layout! Learn more

10-Day Weather Forecast

Advertisements
Track Severe Weather on mobile